sensor_id;sensor_type;location;lat;lon;timestamp;pressure;altitude;pressure_sealevel;temperature;humidity
7157;BME280;3620;49.862;8.758;2023-02-14T00:02:17;101182.19;;;5.60;90.69
7157;BME280;3620;49.862;8.758;2023-02-14T00:04:43;101181.38;;;5.76;89.85
7157;BME280;3620;49.862;8.758;2023-02-14T00:07:12;101188.31;;;5.69;89.85
7157;BME280;3620;49.862;8.758;2023-02-14T00:09:39;101181.28;;;5.56;89.72
7157;BME280;3620;49.862;8.758;2023-02-14T00:12:06;101185.66;;;5.60;88.98
7157;BME280;3620;49.862;8.758;2023-02-14T00:14:32;101189.06;;;5.47;90.48
7157;BME280;3620;49.862;8.758;2023-02-14T00:17:18;101189.94;;;5.46;90.00
7157;BME280;3620;49.862;8.758;2023-02-14T00:19:44;101191.59;;;5.35;90.42
7157;BME280;3620;49.862;8.758;2023-02-14T00:22:11;101189.75;;;5.22;91.23
7157;BME280;3620;49.862;8.758;2023-02-14T00:24:37;101191.59;;;5.38;91.01
7157;BME280;3620;49.862;8.758;2023-02-14T00:27:04;101185.59;;;5.48;90.44
7157;BME280;3620;49.862;8.758;2023-02-14T00:29:31;101195.19;;;5.51;90.38
7157;BME280;3620;49.862;8.758;2023-02-14T00:31:58;101194.28;;;5.46;89.64
7157;BME280;3620;49.862;8.758;2023-02-14T00:34:26;101188.09;;;5.36;89.91
7157;BME280;3620;49.862;8.758;2023-02-14T00:36:53;101195.03;;;5.31;90.73
7157;BME280;3620;49.862;8.758;2023-02-14T00:39:20;101188.16;;;5.39;90.88
7157;BME280;3620;49.862;8.758;2023-02-14T00:41:47;101182.88;;;5.33;90.41
7157;BME280;3620;49.862;8.758;2023-02-14T00:44:13;101188.13;;;5.42;90.61
7157;BME280;3620;49.862;8.758;2023-02-14T00:46:40;101175.94;;;5.38;90.26
7157;BME280;3620;49.862;8.758;2023-02-14T00:49:07;101177.66;;;5.33;90.52
7157;BME280;3620;49.862;8.758;2023-02-14T00:51:35;101172.44;;;5.36;90.40
7157;BME280;3620;49.862;8.758;2023-02-14T00:54:02;101186.25;;;5.17;91.81
7157;BME280;3620;49.862;8.758;2023-02-14T00:56:29;101169.75;;;5.21;91.11
7157;BME280;3620;49.862;8.758;2023-02-14T00:58:55;101171.59;;;5.37;91.18
7157;BME280;3620;49.862;8.758;2023-02-14T01:01:22;101175.88;;;5.26;90.26
7157;BME280;3620;49.862;8.758;2023-02-14T01:03:48;101176.84;;;5.43;90.34
7157;BME280;3620;49.862;8.758;2023-02-14T01:06:15;101179.47;;;5.43;89.50
7157;BME280;3620;49.862;8.758;2023-02-14T01:08:43;101182.84;;;5.30;88.93
7157;BME280;3620;49.862;8.758;2023-02-14T01:11:11;101181.03;;;5.18;89.81
7157;BME280;3620;49.862;8.758;2023-02-14T01:13:39;101183.63;;;5.17;89.88
7157;BME280;3620;49.862;8.758;2023-02-14T01:16:07;101177.41;;;5.03;90.16
7157;BME280;3620;49.862;8.758;2023-02-14T01:18:34;101175.63;;;4.96;91.29
7157;BME280;3620;49.862;8.758;2023-02-14T01:21:13;101189.31;;;4.71;91.38
7157;BME280;3620;49.862;8.758;2023-02-14T01:23:40;101188.63;;;4.90;91.23
7157;BME280;3620;49.862;8.758;2023-02-14T01:26:09;101183.25;;;4.73;90.76
7157;BME280;3620;49.862;8.758;2023-02-14T01:28:36;101186.03;;;4.96;89.90
7157;BME280;3620;49.862;8.758;2023-02-14T01:31:10;101193.91;;;4.97;89.73
7157;BME280;3620;49.862;8.758;2023-02-14T01:33:37;101184.28;;;4.89;89.17
7157;BME280;3620;49.862;8.758;2023-02-14T01:36:05;101182.59;;;4.97;88.84
7157;BME280;3620;49.862;8.758;2023-02-14T01:38:31;101192.16;;;4.98;88.43
7157;BME280;3620;49.862;8.758;2023-02-14T01:40:58;101179.19;;;5.07;88.76
7157;BME280;3620;49.862;8.758;2023-02-14T01:43:26;101182.69;;;5.06;87.99
7157;BME280;3620;49.862;8.758;2023-02-14T01:45:53;101186.00;;;4.90;88.54
7157;BME280;3620;49.862;8.758;2023-02-14T01:48:20;101181.25;;;4.48;90.10
7157;BME280;3620;49.862;8.758;2023-02-14T01:50:49;101181.59;;;4.83;89.08
7157;BME280;3620;49.862;8.758;2023-02-14T01:53:22;101182.63;;;5.01;88.07
7157;BME280;3620;49.862;8.758;2023-02-14T01:56:00;101178.94;;;4.77;89.26
7157;BME280;3620;49.862;8.758;2023-02-14T01:58:32;101184.91;;;4.64;90.18
7157;BME280;3620;49.862;8.758;2023-02-14T02:01:01;101178.84;;;4.68;89.99
7157;BME280;3620;49.862;8.758;2023-02-14T02:03:31;101184.00;;;4.62;90.83
7157;BME280;3620;49.862;8.758;2023-02-14T02:06:04;101177.66;;;4.35;91.58
7157;BME280;3620;49.862;8.758;2023-02-14T02:08:33;101172.56;;;4.49;91.15
7157;BME280;3620;49.862;8.758;2023-02-14T02:11:04;101174.41;;;4.58;90.20
7157;BME280;3620;49.862;8.758;2023-02-14T02:13:32;101166.31;;;4.33;90.94
7157;BME280;3620;49.862;8.758;2023-02-14T02:16:10;101172.56;;;4.46;91.54
7157;BME280;3620;49.862;8.758;2023-02-14T02:18:51;101170.78;;;4.42;90.91
7157;BME280;3620;49.862;8.758;2023-02-14T02:21:52;101178.56;;;4.37;90.82
7157;BME280;3620;49.862;8.758;2023-02-14T02:24:33;101170.63;;;4.30;90.63
7157;BME280;3620;49.862;8.758;2023-02-14T02:27:24;101167.81;;;4.13;91.39
7157;BME280;3620;49.862;8.758;2023-02-14T02:30:17;101165.31;;;4.21;91.20
7157;BME280;3620;49.862;8.758;2023-02-14T02:33:07;101170.66;;;4.31;90.93
7157;BME280;3620;49.862;8.758;2023-02-14T02:38:51;101171.47;;;4.24;90.89
7157;BME280;3620;49.862;8.758;2023-02-14T02:41:27;101167.19;;;4.31;90.79
7157;BME280;3620;49.862;8.758;2023-02-14T02:44:05;101164.47;;;4.22;90.68
7157;BME280;3620;49.862;8.758;2023-02-14T02:46:39;101159.09;;;4.08;91.34
7157;BME280;3620;49.862;8.758;2023-02-14T02:49:29;101160.78;;;4.03;92.24
7157;BME280;3620;49.862;8.758;2023-02-14T02:52:21;101157.28;;;4.01;91.22
7157;BME280;3620;49.862;8.758;2023-02-14T02:55:14;101156.41;;;3.99;91.61
7157;BME280;3620;49.862;8.758;2023-02-14T02:57:44;101161.59;;;3.99;91.72
7157;BME280;3620;49.862;8.758;2023-02-14T03:00:12;101151.13;;;3.93;92.25
7157;BME280;3620;49.862;8.758;2023-02-14T03:02:43;101159.78;;;3.94;91.63
7157;BME280;3620;49.862;8.758;2023-02-14T03:05:29;101158.84;;;3.87;91.54
7157;BME280;3620;49.862;8.758;2023-02-14T03:07:58;101155.22;;;3.73;91.92
7157;BME280;3620;49.862;8.758;2023-02-14T03:10:26;101159.41;;;3.63;92.33
7157;BME280;3620;49.862;8.758;2023-02-14T03:13:16;101161.88;;;3.53;92.66
7157;BME280;3620;49.862;8.758;2023-02-14T03:18:56;101170.56;;;3.55;92.35
7157;BME280;3620;49.862;8.758;2023-02-14T03:21:46;101158.41;;;3.54;92.57
7157;BME280;3620;49.862;8.758;2023-02-14T03:24:24;101159.28;;;3.53;92.81
7157;BME280;3620;49.862;8.758;2023-02-14T03:26:59;101162.84;;;3.61;92.61
7157;BME280;3620;49.862;8.758;2023-02-14T03:29:35;101161.06;;;3.58;92.88
7157;BME280;3620;49.862;8.758;2023-02-14T03:32:11;101169.69;;;3.56;92.76
7157;BME280;3620;49.862;8.758;2023-02-14T03:34:47;101169.06;;;3.72;92.18
7157;BME280;3620;49.862;8.758;2023-02-14T03:37:19;101169.81;;;3.62;92.42
7157;BME280;3620;49.862;8.758;2023-02-14T03:39:58;101184.66;;;2.61;99.37
7157;BME280;3620;49.862;8.758;2023-02-14T03:42:30;101188.13;;;2.15;100.00
7157;BME280;3620;49.862;8.758;2023-02-14T03:44:59;101190.28;;;1.96;100.00
7157;BME280;3620;49.862;8.758;2023-02-14T03:47:29;101179.72;;;1.87;100.00
7157;BME280;3620;49.862;8.758;2023-02-14T03:50:00;101183.34;;;1.95;100.00
7157;BME280;3620;49.862;8.758;2023-02-14T03:52:28;101182.91;;;1.74;100.00
7157;BME280;3620;49.862;8.758;2023-02-14T03:54:59;101182.97;;;1.77;100.00
7157;BME280;3620;49.862;8.758;2023-02-14T03:57:30;101181.59;;;1.94;100.00
7157;BME280;3620;49.862;8.758;2023-02-14T03:59:58;101176.59;;;2.03;100.00
7157;BME280;3620;49.862;8.758;2023-02-14T04:02:32;101173.91;;;1.98;100.00
7157;BME280;3620;49.862;8.758;2023-02-14T04:05:02;101172.59;;;1.77;100.00
7157;BME280;3620;49.862;8.758;2023-02-14T04:07:30;101175.47;;;1.89;100.00
7157;BME280;3620;49.862;8.758;2023-02-14T04:09:58;101181.16;;;1.73;100.00
7157;BME280;3620;49.862;8.758;2023-02-14T04:12:25;101175.38;;;1.86;100.00
7157;BME280;3620;49.862;8.758;2023-02-14T04:14:51;101180.66;;;1.90;100.00
7157;BME280;3620;49.862;8.758;2023-02-14T04:17:18;101180.47;;;1.81;100.00
7157;BME280;3620;49.862;8.758;2023-02-14T04:20:02;101178.34;;;2.04;100.00
7157;BME280;3620;49.862;8.758;2023-02-14T04:22:29;101192.59;;;2.24;100.00
7157;BME280;3620;49.862;8.758;2023-02-14T04:24:55;101193.41;;;2.21;100.00
7157;BME280;3620;49.862;8.758;2023-02-14T04:27:23;101191.75;;;2.25;100.00
7157;BME280;3620;49.862;8.758;2023-02-14T04:29:50;101188.13;;;2.15;100.00
7157;BME280;3620;49.862;8.758;2023-02-14T04:32:19;101190.13;;;2.32;100.00
7157;BME280;3620;49.862;8.758;2023-02-14T04:34:46;101188.03;;;2.11;100.00
7157;BME280;3620;49.862;8.758;2023-02-14T04:37:15;101196.28;;;2.35;100.00
7157;BME280;3620;49.862;8.758;2023-02-14T04:39:42;101182.22;;;2.24;100.00
7157;BME280;3620;49.862;8.758;2023-02-14T04:42:09;101182.59;;;2.00;100.00
7157;BME280;3620;49.862;8.758;2023-02-14T04:44:37;101180.06;;;1.63;100.00
7157;BME280;3620;49.862;8.758;2023-02-14T04:47:04;101184.06;;;1.47;100.00
7157;BME280;3620;49.862;8.758;2023-02-14T04:49:30;101187.97;;;1.29;100.00
7157;BME280;3620;49.862;8.758;2023-02-14T04:51:57;101183.97;;;1.44;100.00
7157;BME280;3620;49.862;8.758;2023-02-14T04:54:24;101184.13;;;1.51;100.00
7157;BME280;3620;49.862;8.758;2023-02-14T04:56:50;101190.34;;;1.59;100.00
7157;BME280;3620;49.862;8.758;2023-02-14T04:59:17;101188.81;;;1.67;100.00
7157;BME280;3620;49.862;8.758;2023-02-14T05:01:45;101182.34;;;1.48;100.00
7157;BME280;3620;49.862;8.758;2023-02-14T05:04:11;101190.16;;;1.49;100.00
7157;BME280;3620;49.862;8.758;2023-02-14T05:06:38;101193.31;;;1.38;100.00
7157;BME280;3620;49.862;8.758;2023-02-14T05:09:05;101197.78;;;1.43;100.00
7157;BME280;3620;49.862;8.758;2023-02-14T05:11:32;101186.06;;;1.61;100.00
7157;BME280;3620;49.862;8.758;2023-02-14T05:13:58;101184.66;;;1.75;100.00
7157;BME280;3620;49.862;8.758;2023-02-14T05:16:25;101195.31;;;1.49;100.00
7157;BME280;3620;49.862;8.758;2023-02-14T05:18:53;101189.16;;;1.44;100.00
7157;BME280;3620;49.862;8.758;2023-02-14T05:21:19;101183.56;;;1.26;100.00
7157;BME280;3620;49.862;8.758;2023-02-14T05:23:46;101186.06;;;1.61;100.00
7157;BME280;3620;49.862;8.758;2023-02-14T05:26:12;101181.75;;;1.60;100.00
7157;BME280;3620;49.862;8.758;2023-02-14T05:28:39;101186.78;;;1.54;100.00
7157;BME280;3620;49.862;8.758;2023-02-14T05:31:06;101184.94;;;1.48;100.00
7157;BME280;3620;49.862;8.758;2023-02-14T05:33:33;101183.63;;;1.29;100.00
7157;BME280;3620;49.862;8.758;2023-02-14T05:36:01;101192.94;;;1.21;100.00
7157;BME280;3620;49.862;8.758;2023-02-14T05:38:28;101183.63;;;1.29;100.00
7157;BME280;3620;49.862;8.758;2023-02-14T05:40:54;101193.19;;;1.32;100.00
7157;BME280;3620;49.862;8.758;2023-02-14T05:43:21;101193.88;;;1.23;100.00
7157;BME280;3620;49.862;8.758;2023-02-14T05:45:47;101186.91;;;1.22;100.00
7157;BME280;3620;49.862;8.758;2023-02-14T05:48:14;101191.97;;;1.16;100.00
7157;BME280;3620;49.862;8.758;2023-02-14T05:50:40;101190.22;;;1.15;100.00
7157;BME280;3620;49.862;8.758;2023-02-14T05:53:10;101190.81;;;1.04;100.00
7157;BME280;3620;49.862;8.758;2023-02-14T05:55:37;101192.63;;;1.08;100.00
7157;BME280;3620;49.862;8.758;2023-02-14T05:58:04;101188.50;;;1.16;100.00
7157;BME280;3620;49.862;8.758;2023-02-14T06:00:31;101195.13;;;1.05;100.00
7157;BME280;3620;49.862;8.758;2023-02-14T06:02:57;101193.66;;;1.14;100.00
7157;BME280;3620;49.862;8.758;2023-02-14T06:05:24;101189.16;;;1.44;100.00
7157;BME280;3620;49.862;8.758;2023-02-14T06:07:51;101189.94;;;1.78;100.00
7157;BME280;3620;49.862;8.758;2023-02-14T06:10:21;101191.53;;;2.14;100.00
7157;BME280;3620;49.862;8.758;2023-02-14T06:12:48;101200.59;;;2.35;100.00
7157;BME280;3620;49.862;8.758;2023-02-14T06:15:15;101189.59;;;2.49;100.00
7157;BME280;3620;49.862;8.758;2023-02-14T06:17:42;101198.38;;;2.54;100.00
7157;BME280;3620;49.862;8.758;2023-02-14T06:20:09;101188.38;;;2.75;100.00
7157;BME280;3620;49.862;8.758;2023-02-14T06:22:38;101190.44;;;2.94;100.00
7157;BME280;3620;49.862;8.758;2023-02-14T06:25:05;101188.06;;;3.08;100.00
7157;BME280;3620;49.862;8.758;2023-02-14T06:27:33;101182.94;;;3.14;99.87
7157;BME280;3620;49.862;8.758;2023-02-14T06:30:00;101185.75;;;3.28;99.54
7157;BME280;3620;49.862;8.758;2023-02-14T06:32:26;101192.63;;;3.23;100.00
7157;BME280;3620;49.862;8.758;2023-02-14T06:34:53;101183.22;;;3.32;100.00
7157;BME280;3620;49.862;8.758;2023-02-14T06:37:19;101186.91;;;3.46;100.00
7157;BME280;3620;49.862;8.758;2023-02-14T06:39:46;101198.25;;;3.51;100.00
7157;BME280;3620;49.862;8.758;2023-02-14T06:42:12;101186.38;;;3.70;99.12
7157;BME280;3620;49.862;8.758;2023-02-14T06:44:40;101196.97;;;3.82;97.96
7157;BME280;3620;49.862;8.758;2023-02-14T06:47:07;101191.00;;;3.92;97.72
7157;BME280;3620;49.862;8.758;2023-02-14T06:49:33;101191.97;;;4.00;98.10
7157;BME280;3620;49.862;8.758;2023-02-14T06:52:00;101191.00;;;3.91;97.32
7157;BME280;3620;49.862;8.758;2023-02-14T06:54:27;101195.16;;;3.78;98.43
7157;BME280;3620;49.862;8.758;2023-02-14T06:56:53;101195.97;;;3.74;100.00
7157;BME280;3620;49.862;8.758;2023-02-14T06:59:20;101194.31;;;3.78;99.48
7157;BME280;3620;49.862;8.758;2023-02-14T07:01:48;101198.75;;;3.86;100.00
7157;BME280;3620;49.862;8.758;2023-02-14T07:04:14;101206.59;;;3.89;100.00
7157;BME280;3620;49.862;8.758;2023-02-14T07:06:42;101203.13;;;3.90;100.00
7157;BME280;3620;49.862;8.758;2023-02-14T07:09:08;101196.22;;;3.94;100.00
7157;BME280;3620;49.862;8.758;2023-02-14T07:11:35;101193.66;;;3.95;100.00
7157;BME280;3620;49.862;8.758;2023-02-14T07:14:01;101197.22;;;4.02;100.00
7157;BME280;3620;49.862;8.758;2023-02-14T07:16:28;101202.38;;;3.97;100.00
7157;BME280;3620;49.862;8.758;2023-02-14T07:18:56;101194.69;;;4.06;100.00
7157;BME280;3620;49.862;8.758;2023-02-14T07:21:22;101204.34;;;4.16;100.00
7157;BME280;3620;49.862;8.758;2023-02-14T07:23:48;101202.78;;;4.33;100.00
7157;BME280;3620;49.862;8.758;2023-02-14T07:26:15;101206.22;;;4.26;100.00
7157;BME280;3620;49.862;8.758;2023-02-14T07:28:43;101201.00;;;4.26;100.00
7157;BME280;3620;49.862;8.758;2023-02-14T07:31:09;101203.56;;;4.22;99.98
7157;BME280;3620;49.862;8.758;2023-02-14T07:33:36;101198.47;;;4.32;100.00
7157;BME280;3620;49.862;8.758;2023-02-14T07:36:05;101207.38;;;4.54;100.00
7157;BME280;3620;49.862;8.758;2023-02-14T07:38:32;101204.72;;;4.50;100.00
7157;BME280;3620;49.862;8.758;2023-02-14T07:40:59;101199.44;;;4.43;99.94
7157;BME280;3620;49.862;8.758;2023-02-14T07:43:26;101192.56;;;4.49;100.00
7157;BME280;3620;49.862;8.758;2023-02-14T07:45:52;101199.59;;;4.59;100.00
7157;BME280;3620;49.862;8.758;2023-02-14T07:48:20;101198.75;;;4.61;100.00
7157;BME280;3620;49.862;8.758;2023-02-14T07:50:47;101199.66;;;4.65;100.00
7157;BME280;3620;49.862;8.758;2023-02-14T07:53:15;101200.69;;;4.77;100.00
7157;BME280;3620;49.862;8.758;2023-02-14T07:55:42;101196.31;;;4.78;100.00
7157;BME280;3620;49.862;8.758;2023-02-14T07:58:08;101199.91;;;4.89;99.87
7157;BME280;3620;49.862;8.758;2023-02-14T08:00:35;101208.47;;;4.76;99.60
7157;BME280;3620;49.862;8.758;2023-02-14T08:03:01;101192.81;;;4.73;99.60
7157;BME280;3620;49.862;8.758;2023-02-14T08:05:28;101204.88;;;4.65;99.05
7157;BME280;3620;49.862;8.758;2023-02-14T08:07:54;101203.19;;;4.70;99.98
7157;BME280;3620;49.862;8.758;2023-02-14T08:10:22;101192.91;;;4.82;99.56
7157;BME280;3620;49.862;8.758;2023-02-14T08:12:49;101189.50;;;4.89;99.00
7157;BME280;3620;49.862;8.758;2023-02-14T08:15:24;101187.81;;;4.97;97.57
7157;BME280;3620;49.862;8.758;2023-02-14T08:18:08;101192.09;;;4.92;97.30
7157;BME280;3620;49.862;8.758;2023-02-14T08:20:35;101198.25;;;4.97;98.18
7157;BME280;3620;49.862;8.758;2023-02-14T08:23:01;101194.06;;;5.15;97.63
7157;BME280;3620;49.862;8.758;2023-02-14T08:25:30;101201.88;;;5.17;96.30
7157;BME280;3620;49.862;8.758;2023-02-14T08:27:56;101204.56;;;5.29;97.32
7157;BME280;3620;49.862;8.758;2023-02-14T08:30:23;101193.25;;;5.27;96.27
7157;BME280;3620;49.862;8.758;2023-02-14T08:32:49;101201.16;;;5.35;95.86
7157;BME280;3620;49.862;8.758;2023-02-14T08:35:16;101195.09;;;5.40;94.97
7157;BME280;3620;49.862;8.758;2023-02-14T08:37:42;101201.25;;;5.50;94.21
7157;BME280;3620;49.862;8.758;2023-02-14T08:40:09;101202.03;;;5.38;94.63
7157;BME280;3620;49.862;8.758;2023-02-14T08:42:38;101208.25;;;5.51;94.42
7157;BME280;3620;49.862;8.758;2023-02-14T08:45:04;101204.00;;;5.72;93.07
7157;BME280;3620;49.862;8.758;2023-02-14T08:47:31;101211.03;;;5.79;92.09
7157;BME280;3620;49.862;8.758;2023-02-14T08:50:00;101209.38;;;5.90;91.72
7157;BME280;3620;49.862;8.758;2023-02-14T08:52:26;101201.44;;;5.77;90.88
7157;BME280;3620;49.862;8.758;2023-02-14T08:54:53;101203.25;;;5.85;91.67
7157;BME280;3620;49.862;8.758;2023-02-14T08:57:19;101205.06;;;6.00;90.96
7157;BME280;3620;49.862;8.758;2023-02-14T08:59:47;101205.91;;;5.95;90.10
7157;BME280;3620;49.862;8.758;2023-02-14T09:02:14;101198.97;;;6.03;90.43
7157;BME280;3620;49.862;8.758;2023-02-14T09:04:41;101200.78;;;6.13;90.69
7157;BME280;3620;49.862;8.758;2023-02-14T09:07:08;101204.25;;;6.12;90.07
7157;BME280;3620;49.862;8.758;2023-02-14T09:09:34;101203.41;;;6.25;90.49
7157;BME280;3620;49.862;8.758;2023-02-14T09:12:02;101201.66;;;6.15;89.87
7157;BME280;3620;49.862;8.758;2023-02-14T09:14:29;101200.84;;;6.34;89.84
7157;BME280;3620;49.862;8.758;2023-02-14T09:17:01;101201.75;;;6.45;88.79
7157;BME280;3620;49.862;8.758;2023-02-14T09:19:30;101201.81;;;6.55;88.76
7157;BME280;3620;49.862;8.758;2023-02-14T09:21:56;101197.44;;;6.59;87.70
7157;BME280;3620;49.862;8.758;2023-02-14T09:24:23;101205.25;;;6.45;87.32
7157;BME280;3620;49.862;8.758;2023-02-14T09:26:49;101199.13;;;6.39;86.48
7157;BME280;3620;49.862;8.758;2023-02-14T09:29:16;101192.16;;;6.35;87.53
7157;BME280;3620;49.862;8.758;2023-02-14T09:31:42;101192.19;;;6.50;86.99
7157;BME280;3620;49.862;8.758;2023-02-14T09:34:10;101192.19;;;6.50;86.90
7157;BME280;3620;49.862;8.758;2023-02-14T09:36:37;101194.81;;;6.59;86.44
7157;BME280;3620;49.862;8.758;2023-02-14T09:39:03;101194.78;;;6.50;86.22
7157;BME280;3620;49.862;8.758;2023-02-14T09:41:54;101194.78;;;6.44;86.27
7157;BME280;3620;49.862;8.758;2023-02-14T09:44:29;101186.06;;;6.42;87.04
7157;BME280;3620;49.862;8.758;2023-02-14T09:47:05;101193.03;;;6.40;86.52
7157;BME280;3620;49.862;8.758;2023-02-14T09:49:37;101187.84;;;6.67;86.85
7157;BME280;3620;49.862;8.758;2023-02-14T09:52:08;101182.63;;;6.70;86.85
7157;BME280;3620;49.862;8.758;2023-02-14T09:54:39;101184.41;;;6.77;84.66
7157;BME280;3620;49.862;8.758;2023-02-14T09:57:10;101181.81;;;6.95;84.39
7157;BME280;3620;49.862;8.758;2023-02-14T09:59:44;101191.38;;;7.02;84.71
7157;BME280;3620;49.862;8.758;2023-02-14T10:02:26;101193.13;;;7.00;84.17
7157;BME280;3620;49.862;8.758;2023-02-14T10:05:03;101180.06;;;7.12;84.36
7157;BME280;3620;49.862;8.758;2023-02-14T10:07:39;101182.66;;;7.23;84.13
7157;BME280;3620;49.862;8.758;2023-02-14T10:10:13;101173.94;;;7.21;84.03
7157;BME280;3620;49.862;8.758;2023-02-14T10:12:44;101181.78;;;7.37;83.56
7157;BME280;3620;49.862;8.758;2023-02-14T10:15:14;101183.50;;;7.45;81.93
7157;BME280;3620;49.862;8.758;2023-02-14T10:17:45;101188.75;;;7.60;82.17
7157;BME280;3620;49.862;8.758;2023-02-14T10:20:20;101185.22;;;7.68;80.60
7157;BME280;3620;49.862;8.758;2023-02-14T10:22:52;101183.50;;;7.45;81.27
7157;BME280;3620;49.862;8.758;2023-02-14T10:25:23;101188.75;;;7.42;81.79
7157;BME280;3620;49.862;8.758;2023-02-14T10:27:52;101187.00;;;7.40;82.67
7157;BME280;3620;49.862;8.758;2023-02-14T10:30:22;101192.22;;;7.50;82.16
7157;BME280;3620;49.862;8.758;2023-02-14T10:32:55;101187.88;;;7.58;81.86
7157;BME280;3620;49.862;8.758;2023-02-14T10:35:32;101172.13;;;7.64;80.67
7157;BME280;3620;49.862;8.758;2023-02-14T10:38:13;101172.94;;;7.81;80.68
7157;BME280;3620;49.862;8.758;2023-02-14T10:41:04;101166.78;;;7.98;79.49
7157;BME280;3620;49.862;8.758;2023-02-14T10:43:38;101171.13;;;8.08;78.74
7157;BME280;3620;49.862;8.758;2023-02-14T10:46:13;101164.22;;;7.79;81.31
7157;BME280;3620;49.862;8.758;2023-02-14T10:48:50;101169.34;;;8.07;80.28
7157;BME280;3620;49.862;8.758;2023-02-14T10:51:24;101162.38;;;8.05;79.15
7157;BME280;3620;49.862;8.758;2023-02-14T10:54:09;101165.94;;;7.87;80.94
7157;BME280;3620;49.862;8.758;2023-02-14T10:56:43;101157.97;;;8.14;80.00
7157;BME280;3620;49.862;8.758;2023-02-14T10:59:17;101158.84;;;8.09;79.70
7157;BME280;3620;49.862;8.758;2023-02-14T11:01:46;101151.94;;;7.96;80.60
7157;BME280;3620;49.862;8.758;2023-02-14T11:04:14;101147.53;;;7.98;80.52
7157;BME280;3620;49.862;8.758;2023-02-14T11:06:43;101146.66;;;8.11;80.53
7157;BME280;3620;49.862;8.758;2023-02-14T11:09:12;101148.38;;;8.12;80.48
7157;BME280;3620;49.862;8.758;2023-02-14T11:11:41;101142.25;;;8.14;79.69
7157;BME280;3620;49.862;8.758;2023-02-14T11:14:19;101139.75;;;7.86;79.54
7157;BME280;3620;49.862;8.758;2023-02-14T11:16:47;101133.81;;;7.05;82.13
7157;BME280;3620;49.862;8.758;2023-02-14T11:19:20;101131.19;;;7.26;82.05
7157;BME280;3620;49.862;8.758;2023-02-14T11:21:51;101124.97;;;7.61;82.73
7157;BME280;3620;49.862;8.758;2023-02-14T11:24:24;101119.72;;;7.77;82.16
7157;BME280;3620;49.862;8.758;2023-02-14T11:26:54;101116.13;;;7.89;81.55
7157;BME280;3620;49.862;8.758;2023-02-14T11:29:25;101115.28;;;7.90;80.69
7157;BME280;3620;49.862;8.758;2023-02-14T11:31:51;101117.91;;;7.88;80.40
7157;BME280;3620;49.862;8.758;2023-02-14T11:34:30;101118.66;;;8.13;79.89
7157;BME280;3620;49.862;8.758;2023-02-14T11:36:59;101110.81;;;8.13;81.02
7157;BME280;3620;49.862;8.758;2023-02-14T11:39:29;101105.50;;;8.27;81.25
7157;BME280;3620;49.862;8.758;2023-02-14T11:41:59;101109.94;;;8.08;81.05
7157;BME280;3620;49.862;8.758;2023-02-14T11:44:28;101100.28;;;8.16;80.22
7157;BME280;3620;49.862;8.758;2023-02-14T11:47:15;101098.50;;;8.30;80.27
7157;BME280;3620;49.862;8.758;2023-02-14T11:49:53;101097.66;;;8.22;80.44
7157;BME280;3620;49.862;8.758;2023-02-14T11:52:22;101092.25;;;8.49;80.06
7157;BME280;3620;49.862;8.758;2023-02-14T11:54:54;101088.63;;;8.65;79.71
7157;BME280;3620;49.862;8.758;2023-02-14T11:57:23;101080.59;;;8.83;78.45
7157;BME280;3620;49.862;8.758;2023-02-14T11:59:54;101080.59;;;8.87;78.78
7157;BME280;3620;49.862;8.758;2023-02-14T12:02:26;101080.53;;;8.93;77.44
7157;BME280;3620;49.862;8.758;2023-02-14T12:04:56;101078.13;;;8.68;77.98
7157;BME280;3620;49.862;8.758;2023-02-14T12:07:29;101077.25;;;8.68;78.18
7157;BME280;3620;49.862;8.758;2023-02-14T12:10:16;101071.38;;;8.31;79.86
7157;BME280;3620;49.862;8.758;2023-02-14T12:13:18;101065.97;;;8.55;78.95
7157;BME280;3620;49.862;8.758;2023-02-14T12:15:50;101070.09;;;8.85;78.54
7157;BME280;3620;49.862;8.758;2023-02-14T12:18:42;101063.88;;;8.94;78.10
7157;BME280;3620;49.862;8.758;2023-02-14T12:21:37;101062.22;;;8.83;77.06
7157;BME280;3620;49.862;8.758;2023-02-14T12:24:14;101059.66;;;8.76;77.51
7157;BME280;3620;49.862;8.758;2023-02-14T12:26:44;101050.94;;;8.74;77.74
7157;BME280;3620;49.862;8.758;2023-02-14T12:29:18;101051.91;;;8.62;77.86
7157;BME280;3620;49.862;8.758;2023-02-14T12:31:48;101049.47;;;8.41;78.08
7157;BME280;3620;49.862;8.758;2023-02-14T12:34:16;101044.22;;;8.43;79.21
7157;BME280;3620;49.862;8.758;2023-02-14T12:37:04;101038.19;;;8.33;79.09
7157;BME280;3620;49.862;8.758;2023-02-14T12:39:37;101027.94;;;7.88;81.10
7157;BME280;3620;49.862;8.758;2023-02-14T12:42:20;101023.41;;;8.17;81.16
7157;BME280;3620;49.862;8.758;2023-02-14T12:44:56;101022.50;;;8.18;81.68
7157;BME280;3620;49.862;8.758;2023-02-14T12:47:33;101024.22;;;8.25;80.84
7157;BME280;3620;49.862;8.758;2023-02-14T12:50:25;101020.69;;;8.35;82.50
7157;BME280;3620;49.862;8.758;2023-02-14T12:53:18;101022.41;;;8.36;82.90
7157;BME280;3620;49.862;8.758;2023-02-14T12:55:57;101017.03;;;8.54;81.16
7157;BME280;3620;49.862;8.758;2023-02-14T12:58:39;101009.25;;;8.44;80.73
7157;BME280;3620;49.862;8.758;2023-02-14T13:01:28;101006.53;;;8.54;80.49
7157;BME280;3620;49.862;8.758;2023-02-14T13:04:21;101009.19;;;8.53;80.86
7157;BME280;3620;49.862;8.758;2023-02-14T13:06:58;101007.47;;;8.47;80.82
7157;BME280;3620;49.862;8.758;2023-02-14T13:09:35;101006.50;;;8.57;80.47
7157;BME280;3620;49.862;8.758;2023-02-14T13:12:16;101002.88;;;8.70;79.97
7157;BME280;3620;49.862;8.758;2023-02-14T13:14:57;101001.19;;;8.66;80.40
7157;BME280;3620;49.862;8.758;2023-02-14T13:17:31;100994.19;;;8.65;80.03
7157;BME280;3620;49.862;8.758;2023-02-14T13:20:11;100995.06;;;8.66;80.62
7157;BME280;3620;49.862;8.758;2023-02-14T13:22:49;100992.50;;;8.60;80.09
7157;BME280;3620;49.862;8.758;2023-02-14T13:25:23;100983.81;;;8.52;80.43
7157;BME280;3620;49.862;8.758;2023-02-14T13:27:58;100987.31;;;8.52;80.52
7157;BME280;3620;49.862;8.758;2023-02-14T13:30:27;100982.16;;;8.43;80.88
7157;BME280;3620;49.862;8.758;2023-02-14T13:32:57;100973.44;;;8.41;81.60
7157;BME280;3620;49.862;8.758;2023-02-14T13:35:27;100978.66;;;8.44;81.77
7157;BME280;3620;49.862;8.758;2023-02-14T13:37:56;100975.84;;;8.62;81.40
7157;BME280;3620;49.862;8.758;2023-02-14T13:40:25;100978.44;;;8.68;80.72
7157;BME280;3620;49.862;8.758;2023-02-14T13:42:55;100973.03;;;8.80;80.50
7157;BME280;3620;49.862;8.758;2023-02-14T13:48:29;100970.47;;;8.74;80.77
7157;BME280;3620;49.862;8.758;2023-02-14T13:50:57;100970.44;;;8.79;81.09